Latest Coastal Weather Observations for Centre Island

IDD60701

Issued at 6:01 pm CST Thursday 30 June 2016 (issued every 10 minutes, with the page automatically refreshed every 10 minutes)

About coastal observations | Map of coastal stations | Coastal observations for NT | Marine services | Other Formats
Station Details ID: 014703 Name: CENTRE ISLAND Lat: -15.74 Lon: 136.82 Height: 12.2 m
Data from the previous 72 hours. | See also: Recent months at Centre Island
Date/Time
CST
Temp
°C
Wind Pressure Rain since
9am
mm
Weather Cloud Vis
km
Sea
Height
m
Swell
Dir  Spd
kts
Gust
kts
hPa Trend Height
m
Period
s
Dir
30/06:00pm 24.3 ENE 9 11 1015.7 - 0.0 - - - - - - -
30/05:30pm 25.2 ENE 10 13 1015.5 - 0.0 - - - - - - -
30/05:00pm 26.1 ENE 11 14 1015.3 - 0.0 - - - - - - -
30/04:30pm 26.6 ENE 11 14 1015.4 - 0.0 - - - - - - -
30/04:00pm 27.2 ENE 13 16 1015.4 - 0.0 - - - - - - -
30/03:30pm 27.5 E 14 16 1015.4 - 0.0 - - - - - - -
30/03:00pm 27.3 E 13 17 1015.6 - 0.0 - - - - - - -
30/02:30pm 28.0 ENE 13 16 1015.7 - 0.0 - - - - - - -
30/02:00pm 28.1 E 11 15 1016.2 - 0.0 - - - - - - -
30/01:30pm 28.0 ESE 12 14 1016.5 - 0.0 - - - - - - -
30/01:00pm 26.7 ESE 8 10 1017.1 - 0.0 - - - - - - -
30/12:30pm 26.7 ESE 9 10 1017.8 - 0.0 - - - - - - -
30/12:00pm 26.4 SE 10 12 1018.3 - 0.0 - - - - - - -
30/11:30am 25.9 ESE 14 17 1018.8 - 0.0 - - - - - - -
30/11:00am 25.4 ESE 17 20 1019.2 - 0.0 - - - - - - -
30/10:30am 24.9 ESE 14 18 1019.3 - 0.0 - - - - - - -
30/10:00am 23.4 SE 12 16 1019.3 - 0.0 - - - - - - -
30/09:30am 22.8 SSE 8 11 1019.3 - 0.0 - - - - - - -
30/09:00am 22.0 S 7 9 1019.0 - 0.0 - - - - - - -
30/08:30am 21.8 S 9 11 1018.7 - 0.0 - - - - - - -
30/08:00am 21.5 S 9 10 1018.5 - 0.0 - - - - - - -
30/07:30am 21.2 SSW 9 13 1017.9 - 0.0 - - - - - - -
30/07:00am 20.6 SSW 9 11 1017.4 - 0.0 - - - - - - -
30/06:30am 20.4 SW 8 10 1017.2 - 0.0 - - - - - - -
30/06:00am 20.2 SW 9 11 1016.9 - 0.0 - - - - - - -
30/05:30am 20.3 SSW 8 11 1016.7 - 0.0 - - - - - - -
30/05:00am 20.5 SSW 8 10 1016.6 - 0.0 - - - - - - -
30/04:30am 20.9 S 8 9 1016.6 - 0.0 - - - - - - -
30/04:00am 20.9 S 9 11 1016.4 - 0.0 - - - - - - -
30/03:30am 21.7 SSE 6 7 1016.4 - 0.0 - - - - - - -
30/03:00am 20.8 ESE 4 5 1016.5 - 0.0 - - - - - - -
30/02:30am 21.1 E 4 5 1016.8 - 0.0 - - - - - - -
30/02:00am 21.4 E 5 6 1017.1 - 0.0 - - - - - - -
30/01:30am 21.7 ENE 5 7 1017.3 - 0.0 - - - - - - -
30/01:00am 22.0 NE 6 8 1017.6 - 0.0 - - - - - - -
30/12:30am 22.0 ENE 7 10 1017.6 - 0.0 - - - - - - -
30/12:00am 21.9 ENE 7 8 1017.6 - 0.0 - - - - - - -
 
Date/Time
CST
Temp
°C
Wind Pressure Rain since
9am
mm
Weather Cloud Vis
km
Sea
Height
m
Swell
Dir  Spd
kts
Gust
kts
hPa Trend Height
m
Period
s
Dir
29/11:30pm 22.1 E 8 10 1017.7 - 0.0 - - - - - - -
29/11:00pm 21.9 E 6 8 1017.8 - 0.0 - - - - - - -
29/10:30pm 21.9 E 7 8 1017.9 - 0.0 - - - - - - -
29/10:00pm 22.0 ESE 7 9 1017.8 - 0.0 - - - - - - -
29/09:30pm 22.1 ESE 9 11 1017.9 - 0.0 - - - - - - -
29/09:00pm 22.1 ESE 9 11 1017.8 - 0.0 - - - - - - -
29/08:30pm 22.2 E 10 13 1017.4 - 0.0 - - - - - - -
29/08:00pm 22.0 E 9 11 1017.2 - 0.0 - - - - - - -
29/07:30pm 22.1 E 11 13 1016.9 - 0.0 - - - - - - -
29/07:00pm 22.5 E 11 13 1016.5 - 0.0 - - - - - - -
29/06:30pm 22.7 E 10 13 1016.3 - 0.0 - - - - - - -
29/06:00pm 22.9 ENE 9 12 1016.2 - 0.0 - - - - - - -
29/05:30pm 23.7 ENE 12 14 1016.0 - 0.0 - - - - - - -
29/05:00pm 24.6 E 12 14 1015.7 - 0.0 - - - - - - -
29/04:30pm 25.2 E 10 13 1015.3 - 0.0 - - - - - - -
29/04:00pm 26.0 ENE 9 13 1015.2 - 0.0 - - - - - - -
29/03:30pm 25.7 NE 5 7 1015.2 - 0.0 - - - - - - -
29/03:00pm 25.5 E 6 7 1015.2 - 0.0 - - - - - - -
29/02:30pm 25.9 ENE 5 6 1015.3 - 0.0 - - - - - - -
29/02:00pm 26.1 ENE 5 7 1015.7 - 0.0 - - - - - - -
29/01:30pm 24.8 E 5 6 1016.1 - 0.0 - - - - - - -
29/01:00pm 24.5 ESE 4 6 1016.8 - 0.0 - - - - - - -
29/12:30pm 23.4 ESE 5 6 1017.5 - 0.0 - - - - - - -
29/12:00pm 24.0 SSE 6 8 1018.2 - 0.0 - - - - - - -
29/11:30am 23.6 SE 8 11 1018.8 - 0.0 - - - - - - -
29/11:00am 23.0 SE 11 14 1019.1 - 0.0 - - - - - - -
29/10:30am 22.0 SE 11 13 1019.4 - 0.0 - - - - - - -
29/10:00am 20.7 SE 13 16 1019.3 - 0.0 - - - - - - -
29/09:30am 20.3 SE 17 19 1019.6 - 0.0 - - - - - - -
29/09:00am 19.6 SE 18 21 1019.6 - 0.0 - - - - - - -
29/08:30am 18.9 SE 18 22 1019.5 - 0.0 - - - - - - -
29/08:00am 18.7 SE 19 23 1019.5 - 0.0 - - - - - - -
29/07:30am 18.1 SSE 17 19 1019.0 - 0.0 - - - - - - -
29/07:00am 18.0 SSE 18 21 1018.7 - 0.0 - - - - - - -
29/06:30am 18.2 SSE 17 21 1018.3 - 0.0 - - - - - - -
29/06:00am 18.5 SSE 17 20 1018.2 - 0.0 - - - - - - -
29/05:30am 18.7 SSE 15 18 1018.3 - 0.0 - - - - - - -
29/05:00am 19.2 SSE 18 21 1018.1 - 0.0 - - - - - - -
29/04:30am 19.3 SE 22 27 1017.9 - 0.0 - - - - - - -
29/04:00am 19.6 SE 24 28 1017.9 - 0.0 - - - - - - -
29/03:30am 19.8 SE 27 32 1017.7 - 0.0 - - - - - - -
29/03:00am 20.3 SE 27 31 1017.9 - 0.0 - - - - - - -
29/02:30am 20.6 SE 27 32 1018.1 - 0.0 - - - - - - -
29/02:00am 21.0 SE 28 32 1018.2 - 0.0 - - - - - - -
29/01:30am 21.4 SE 29 35 1018.1 - 0.0 - - - - - - -
29/01:00am 21.9 SE 28 33 1018.0 - 0.0 - - - - - - -
29/12:30am 22.3 SE 27 31 1018.0 - 0.0 - - - - - - -
29/12:00am 22.9 SE 24 27 1017.9 - 0.0 - - - - - - -
 
Date/Time
CST
Temp
°C
Wind Pressure Rain since
9am
mm
Weather Cloud Vis
km
Sea
Height
m
Swell
Dir  Spd
kts
Gust
kts
hPa Trend Height
m
Period
s
Dir
28/11:30pm 23.3 SE 24 27 1017.9 - 0.0 - - - - - - -
28/11:00pm 23.7 SE 22 27 1018.0 - 0.0 - - - - - - -
28/10:30pm 23.9 ESE 22 26 1018.0 - 0.0 - - - - - - -
28/10:00pm 23.8 ESE 19 23 1017.9 - 0.0 - - - - - - -
28/09:30pm 23.7 ESE 17 20 1017.9 - 0.0 - - - - - - -
28/09:00pm 23.4 ESE 16 19 1017.8 - 0.0 - - - - - - -
28/08:30pm 23.4 E 16 20 1017.6 - 0.0 - - - - - - -
28/08:00pm 23.3 E 17 20 1017.4 - 0.0 - - - - - - -
28/07:30pm 23.3 E 16 19 1017.1 - 0.0 - - - - - - -
28/07:00pm 23.2 E 14 18 1016.9 - 0.0 - - - - - - -
28/06:30pm 23.2 E 13 16 1016.6 - 0.0 - - - - - - -
28/06:00pm 23.3 E 14 16 1016.2 - 0.0 - - - - - - -
28/05:30pm 23.9 E 14 17 1016.0 - 0.0 - - - - - - -
28/05:00pm 24.5 ENE 13 15 1015.7 - 0.0 - - - - - - -
28/04:30pm 25.2 E 12 15 1015.6 - 0.0 - - - - - - -
28/04:00pm 25.8 E 12 16 1015.6 - 0.0 - - - - - - -
28/03:30pm 26.1 E 12 15 1015.5 - 0.0 - - - - - - -
28/03:00pm 26.6 ENE 11 14 1015.9 - 0.0 - - - - - - -
28/02:30pm 26.7 E 10 13 1016.2 - 0.0 - - - - - - -
28/02:00pm 27.1 E 10 13 1016.4 - 0.0 - - - - - - -
28/01:30pm 26.8 ESE 11 13 1016.8 - 0.0 - - - - - - -
28/01:00pm 25.9 ESE 11 13 1017.2 - 0.0 - - - - - - -
28/12:30pm 25.4 ESE 12 14 1017.6 - 0.0 - - - - - - -
28/12:00pm 25.3 ESE 12 15 1018.1 - 0.0 - - - - - - -
28/11:30am 25.4 ESE 13 15 1018.3 - 0.0 - - - - - - -
28/11:00am 24.7 SE 15 17 1018.6 - 0.0 - - - - - - -
28/10:30am 24.0 SE 13 16 1018.9 - 0.0 - - - - - - -
28/10:00am 23.8 SE 11 15 1019.0 - 0.0 - - - - - - -
28/09:30am 22.6 SE 11 13 1018.9 - 0.0 - - - - - - -
28/09:00am 21.8 SE 14 17 1018.7 - 0.0 - - - - - - -
28/08:30am 21.4 SE 17 22 1018.3 - 0.0 - - - - - - -
28/08:00am 21.1 SE 15 17 1017.9 - 0.0 - - - - - - -
28/07:30am 20.7 SE 16 19 1017.4 - 0.0 - - - - - - -
28/07:00am 20.7 SE 17 21 1017.2 - 0.0 - - - - - - -
28/06:30am 20.9 SE 18 21 1016.9 - 0.0 - - - - - - -
28/06:00am 21.3 SE 19 24 1016.6 - 0.0 - - - - - - -
28/05:30am 21.4 SSE 17 21 1016.6 - 0.0 - - - - - - -
28/05:00am 21.5 SE 17 21 1016.5 - 0.0 - - - - - - -
28/04:30am 21.7 SE 17 21 1016.5 - 0.0 - - - - - - -
28/04:00am 22.1 SE 21 25 1016.5 - 0.0 - - - - - - -
28/03:30am 22.5 SE 19 23 1016.6 - 0.0 - - - - - - -
28/03:00am 23.1 SE 22 26 1016.5 - 0.0 - - - - - - -
28/02:30am 23.3 SE 20 24 1016.6 - 0.0 - - - - - - -
28/02:00am 23.1 SE 17 20 1016.8 - 0.0 - - - - - - -
28/01:30am 23.4 SE 17 20 1016.8 - 0.0 - - - - - - -
28/01:00am 23.3 SE 14 16 1016.8 - 0.0 - - - - - - -
28/12:30am 23.6 SSE 13 15 1016.9 - 0.0 - - - - - - -
28/12:00am 24.0 SSE 12 14 1016.9 - 0.0 - - - - - - -
 
Date/Time
CST
Temp
°C
Wind Pressure Rain since
9am
mm
Weather Cloud Vis
km
Sea
Height
m
Swell
Dir  Spd
kts
Gust
kts
hPa Trend Height
m
Period
s
Dir
27/11:30pm 24.5 SE 13 16 1016.8 - 0.0 - - - - - - -
27/11:00pm 24.5 ESE 13 14 1016.7 - 0.0 - - - - - - -
27/10:30pm 24.6 ESE 13 15 1016.5 - 0.0 - - - - - - -
27/10:00pm 24.6 ESE 13 16 1016.4 - 0.0 - - - - - - -
27/09:30pm 24.7 ESE 10 12 1016.3 - 0.0 - - - - - - -
27/09:00pm 24.9 E 9 11 1016.2 - 0.0 - - - - - - -
27/08:30pm 25.0 E 10 12 1015.9 - 0.0 - - - - - - -
27/08:00pm 25.1 ENE 11 13 1015.8 - 0.0 - - - - - - -
27/07:30pm 25.2 ENE 9 11 1015.4 - 0.0 - - - - - - -
27/07:00pm 25.4 ENE 9 11 1015.0 - 0.0 - - - - - - -
27/06:30pm 25.7 E 9 11 1014.6 - 0.0 - - - - - - -

Other Formats:

Comma delimited format used in spreadsheet applications
http://www.bom.gov.au/fwo/IDD60701/IDD60701.94248.axf

JavaScript Object Notation format (JSON) in row-major order
http://www.bom.gov.au/fwo/IDD60701/IDD60701.94248.json